createdAt,value
2023-04-17T00:01:08.270Z,12.30
2023-04-17T00:03:36.136Z,12.40
2023-04-17T00:06:04.244Z,12.27
2023-04-17T00:08:32.475Z,12.24
2023-04-17T00:11:07.060Z,12.37
2023-04-17T00:13:35.033Z,12.08
2023-04-17T00:16:03.128Z,12.06
2023-04-17T00:18:30.588Z,12.34
2023-04-17T00:20:58.000Z,12.14
2023-04-17T00:23:26.281Z,11.82
2023-04-17T00:25:53.636Z,11.82
2023-04-17T00:28:21.097Z,11.86
2023-04-17T00:30:48.735Z,11.99
2023-04-17T00:33:16.309Z,12.03
2023-04-17T00:35:43.700Z,12.06
2023-04-17T00:38:11.327Z,12.19
2023-04-17T00:40:38.751Z,12.28
2023-04-17T00:43:07.057Z,11.94
2023-04-17T00:45:36.889Z,11.97
2023-04-17T00:48:06.897Z,12.37
2023-04-17T00:50:35.158Z,11.73
2023-04-17T00:53:02.739Z,11.93
2023-04-17T00:55:31.613Z,11.81
2023-04-17T00:57:59.628Z,11.74
2023-04-17T01:00:27.046Z,11.35
2023-04-17T01:02:57.772Z,11.67
2023-04-17T01:05:27.475Z,12.17
2023-04-17T01:07:58.185Z,11.62
2023-04-17T01:10:25.860Z,11.60
2023-04-17T01:13:04.383Z,11.30
2023-04-17T01:15:33.130Z,11.56
2023-04-17T01:18:00.580Z,11.77
2023-04-17T01:20:31.358Z,12.25
2023-04-17T01:22:59.461Z,11.94
2023-04-17T01:25:28.086Z,11.65
2023-04-17T01:27:56.202Z,11.81
2023-04-17T01:30:24.199Z,11.76
2023-04-17T01:32:55.488Z,11.81
2023-04-17T01:35:23.208Z,11.80
2023-04-17T01:37:51.195Z,11.76
2023-04-17T01:40:18.678Z,11.38
2023-04-17T01:42:46.020Z,11.69
2023-04-17T01:45:13.956Z,11.91
2023-04-17T01:47:41.549Z,11.84
2023-04-17T01:50:09.393Z,11.76
2023-04-17T01:52:37.348Z,11.33
2023-04-17T01:55:04.975Z,11.49
2023-04-17T01:57:33.378Z,11.47
2023-04-17T02:00:01.033Z,11.66
2023-04-17T02:02:28.530Z,11.79
2023-04-17T02:04:56.235Z,11.51
2023-04-17T02:07:23.588Z,11.71
2023-04-17T02:09:50.959Z,11.41
2023-04-17T02:12:19.366Z,11.68
2023-04-17T02:14:46.731Z,11.90
2023-04-17T02:17:14.078Z,11.48
2023-04-17T02:19:41.724Z,11.73
2023-04-17T02:22:09.148Z,11.50
2023-04-17T02:24:36.556Z,11.95
2023-04-17T02:27:04.178Z,12.26
2023-04-17T02:29:31.574Z,12.32
2023-04-17T02:31:58.952Z,12.33
2023-04-17T02:34:27.249Z,12.29
2023-04-17T02:36:54.821Z,12.47
2023-04-17T02:39:23.695Z,12.21
2023-04-17T02:41:51.375Z,12.54
2023-04-17T02:44:18.740Z,12.49
2023-04-17T02:46:46.224Z,12.86
2023-04-17T02:49:14.265Z,12.82
2023-04-17T02:51:41.784Z,12.93
2023-04-17T02:54:09.230Z,12.91
2023-04-17T02:56:36.912Z,13.06
2023-04-17T02:59:04.437Z,12.80
2023-04-17T03:01:34.027Z,12.91
2023-04-17T03:04:01.777Z,12.54
2023-04-17T03:06:30.258Z,12.59
2023-04-17T03:08:57.682Z,12.28
2023-04-17T03:11:25.820Z,12.51
2023-04-17T03:13:53.187Z,12.11
2023-04-17T03:16:22.319Z,12.34
2023-04-17T03:18:50.461Z,12.48
2023-04-17T03:21:17.902Z,12.73
2023-04-17T03:23:45.271Z,12.79
2023-04-17T03:26:13.110Z,12.95
2023-04-17T03:28:40.526Z,12.12
2023-04-17T03:31:07.909Z,12.38
2023-04-17T03:33:37.798Z,12.53
2023-04-17T03:36:06.116Z,12.24
2023-04-17T03:38:35.941Z,12.70
2023-04-17T03:41:04.044Z,12.81
2023-04-17T03:43:31.383Z,12.47
2023-04-17T03:45:58.809Z,11.87
2023-04-17T03:48:26.522Z,12.41
2023-04-17T03:50:53.978Z,12.54
2023-04-17T03:53:21.599Z,12.53
2023-04-17T03:55:50.102Z,12.77
2023-04-17T03:58:20.293Z,12.92
2023-04-17T04:00:48.550Z,12.98
2023-04-17T04:03:16.566Z,12.83
2023-04-17T04:05:44.076Z,13.04
2023-04-17T04:08:11.545Z,12.98
2023-04-17T04:10:39.566Z,13.18
2023-04-17T04:13:07.044Z,12.51
2023-04-17T04:15:35.121Z,12.81
2023-04-17T04:18:03.225Z,13.00
2023-04-17T04:20:32.056Z,13.19
2023-04-17T04:23:03.549Z,12.54
2023-04-17T04:25:32.389Z,12.44
2023-04-17T04:28:01.717Z,12.66
2023-04-17T04:30:35.899Z,12.83
2023-04-17T04:33:06.076Z,12.98
2023-04-17T04:35:34.012Z,12.49
2023-04-17T04:38:02.164Z,13.03
2023-04-17T04:40:36.018Z,13.17
2023-04-17T04:43:04.369Z,13.44
2023-04-17T04:45:33.010Z,13.36
2023-04-17T04:48:01.091Z,13.50
2023-04-17T04:50:29.617Z,13.50
2023-04-17T04:52:57.884Z,13.52
2023-04-17T04:55:26.608Z,13.34
2023-04-17T04:57:54.647Z,13.11
2023-04-17T05:00:23.836Z,13.31
2023-04-17T05:02:51.779Z,13.45
2023-04-17T05:05:20.266Z,13.56
2023-04-17T05:07:47.878Z,13.64
2023-04-17T05:10:15.628Z,13.63
2023-04-17T05:12:44.386Z,13.69
2023-04-17T05:15:13.218Z,13.74
2023-04-17T05:17:41.921Z,13.62
2023-04-17T05:20:16.455Z,13.71
2023-04-17T05:22:45.292Z,13.75
2023-04-17T05:25:12.965Z,13.69
2023-04-17T05:27:40.366Z,13.65
2023-04-17T05:30:08.812Z,13.56
2023-04-17T05:32:38.850Z,13.56
2023-04-17T05:35:08.303Z,13.88
2023-04-17T05:37:36.557Z,13.58
2023-04-17T05:40:06.836Z,13.68
2023-04-17T05:42:34.925Z,13.87
2023-04-17T05:45:02.637Z,13.89
2023-04-17T05:47:30.259Z,13.95
2023-04-17T05:49:58.841Z,13.85
2023-04-17T05:52:28.011Z,13.83
2023-04-17T05:54:56.571Z,13.93
2023-04-17T05:57:24.319Z,13.97
2023-04-17T05:59:52.699Z,13.99
2023-04-17T06:02:20.144Z,14.09
2023-04-17T06:04:48.060Z,14.36
2023-04-17T06:07:16.088Z,14.15
2023-04-17T06:09:43.582Z,14.25
2023-04-17T06:12:15.978Z,14.25
2023-04-17T06:14:43.809Z,14.38
2023-04-17T06:17:12.381Z,14.54
2023-04-17T06:19:39.966Z,14.32
2023-04-17T06:22:07.495Z,14.56
2023-04-17T06:24:36.861Z,14.72
2023-04-17T06:27:04.591Z,14.83
2023-04-17T06:29:32.038Z,14.73
2023-04-17T06:31:59.707Z,14.81
2023-04-17T06:34:27.604Z,14.53
2023-04-17T06:36:55.524Z,15.00
2023-04-17T06:39:23.266Z,15.23
2023-04-17T06:41:50.806Z,15.12
2023-04-17T06:44:24.492Z,15.19
2023-04-17T06:46:53.799Z,15.30
2023-04-17T06:49:21.323Z,15.15
2023-04-17T06:51:49.646Z,15.22
2023-04-17T06:54:17.425Z,15.43
2023-04-17T06:56:44.863Z,15.44
2023-04-17T06:59:12.354Z,15.50
2023-04-17T07:01:40.480Z,15.66
2023-04-17T07:04:09.217Z,15.61
2023-04-17T07:06:37.187Z,15.57
2023-04-17T07:09:05.380Z,15.77
2023-04-17T07:11:32.745Z,15.64
2023-04-17T07:14:00.157Z,15.58
2023-04-17T07:16:27.832Z,15.90
2023-04-17T07:56:46.624Z,17.01
2023-04-17T07:59:14.447Z,16.86
2023-04-17T08:01:42.135Z,16.98
2023-04-17T08:04:10.101Z,17.43
2023-04-17T08:06:37.738Z,17.41
2023-04-17T08:09:05.327Z,17.16
2023-04-17T08:11:42.663Z,17.27
2023-04-17T08:14:20.125Z,17.31
2023-04-17T08:16:48.011Z,17.06
2023-04-17T08:19:15.522Z,17.16
2023-04-17T08:21:42.858Z,17.19
2023-04-17T08:24:10.612Z,17.35
2023-04-17T08:26:37.970Z,17.49
2023-04-17T08:29:05.336Z,17.69
2023-04-17T08:31:34.298Z,17.69
2023-04-17T08:34:12.921Z,17.37
2023-04-17T08:36:42.694Z,17.99
2023-04-17T08:39:12.368Z,18.30
2023-04-17T08:41:47.285Z,18.20
2023-04-17T08:44:20.652Z,18.28
2023-04-17T08:46:48.828Z,18.19
2023-04-17T08:49:16.754Z,18.25
2023-04-17T08:51:44.176Z,18.28
2023-04-17T08:54:12.918Z,18.28
2023-04-17T08:56:40.596Z,18.25
2023-04-17T08:59:07.979Z,18.48
2023-04-17T09:01:35.825Z,18.54
2023-04-17T09:04:03.575Z,18.32
2023-04-17T09:06:49.174Z,18.30
2023-04-17T09:09:16.901Z,18.64
2023-04-17T09:11:44.503Z,18.51
2023-04-17T09:14:30.371Z,18.50
2023-04-17T09:16:58.027Z,18.68
2023-04-17T09:19:25.929Z,18.17
2023-04-17T09:21:54.632Z,18.47
2023-04-17T09:24:41.310Z,18.88
2023-04-17T09:27:22.403Z,19.06
2023-04-17T09:29:58.074Z,19.37
2023-04-17T09:32:26.444Z,19.28
2023-04-17T09:34:56.946Z,18.82
2023-04-17T09:37:24.553Z,18.88
2023-04-17T09:40:00.067Z,19.06
2023-04-17T09:42:28.001Z,19.48
2023-04-17T09:44:55.313Z,19.07
2023-04-17T09:47:22.886Z,19.26
2023-04-17T09:49:52.877Z,19.41
2023-04-17T09:52:23.437Z,19.56
2023-04-17T09:54:53.752Z,19.44
2023-04-17T09:57:21.466Z,19.63
2023-04-17T09:59:49.254Z,19.25
2023-04-17T10:02:18.535Z,19.19
2023-04-17T10:04:47.428Z,19.30
2023-04-17T10:07:16.438Z,19.34
2023-04-17T10:09:46.761Z,19.32
2023-04-17T10:12:18.688Z,19.37
2023-04-17T10:14:48.438Z,19.51
2023-04-17T10:17:28.701Z,19.62
2023-04-17T10:19:56.795Z,19.91
2023-04-17T10:22:24.844Z,19.47
2023-04-17T10:25:15.558Z,19.38
2023-04-17T10:27:46.167Z,19.49
2023-04-17T10:30:14.456Z,19.40
2023-04-17T10:32:44.495Z,19.00
2023-04-17T10:35:17.822Z,19.14
2023-04-17T10:37:53.341Z,19.24
2023-04-17T10:40:25.963Z,19.61
2023-04-17T10:43:05.200Z,19.16
2023-04-17T10:46:07.009Z,19.34
2023-04-17T10:48:38.836Z,19.34
2023-04-17T10:51:21.887Z,19.30
2023-04-17T10:53:51.347Z,18.92
2023-04-17T10:56:24.285Z,19.23
2023-04-17T10:58:57.757Z,19.34
2023-04-17T11:01:28.365Z,18.79
2023-04-17T11:03:59.514Z,19.15
2023-04-17T11:06:28.887Z,19.04
2023-04-17T11:08:58.463Z,18.41
2023-04-17T11:11:40.437Z,18.94
2023-04-17T11:14:16.701Z,18.48
2023-04-17T11:16:46.226Z,18.79
2023-04-17T11:19:19.066Z,18.24
2023-04-17T11:21:49.130Z,18.31
2023-04-17T11:24:27.927Z,18.61
2023-04-17T11:26:57.786Z,18.72
2023-04-17T11:29:26.339Z,18.81
2023-04-17T11:31:55.189Z,18.32
2023-04-17T11:34:23.020Z,18.20
2023-04-17T11:36:51.659Z,18.85
2023-04-17T11:39:20.621Z,18.78
2023-04-17T11:41:48.135Z,19.05
2023-04-17T11:44:17.973Z,18.79
2023-04-17T11:46:54.623Z,18.85
2023-04-17T11:49:29.643Z,18.92
2023-04-17T11:51:59.943Z,18.99
2023-04-17T11:54:28.600Z,19.31
2023-04-17T11:57:22.146Z,19.44
2023-04-17T11:59:50.005Z,19.36
2023-04-17T12:02:17.479Z,19.26
2023-04-17T12:04:45.320Z,18.95
2023-04-17T12:07:21.736Z,19.43
2023-04-17T12:09:57.544Z,19.37
2023-04-17T12:12:24.947Z,19.44
2023-04-17T12:14:52.601Z,19.66
2023-04-17T12:17:19.966Z,19.67
2023-04-17T12:19:47.345Z,19.96
2023-04-17T12:22:14.942Z,20.16
2023-04-17T12:24:42.299Z,19.90
2023-04-17T12:27:09.728Z,19.85
2023-04-17T12:32:10.822Z,20.14
2023-04-17T12:34:38.763Z,20.26
2023-04-17T12:37:06.388Z,20.29
2023-04-17T12:39:33.741Z,20.19
2023-04-17T12:42:01.344Z,20.21
2023-04-17T12:44:28.767Z,20.16
2023-04-17T12:46:56.221Z,19.81
2023-04-17T12:49:23.964Z,19.61
2023-04-17T12:51:53.392Z,19.74
2023-04-17T12:54:20.721Z,20.14
2023-04-17T12:56:48.420Z,20.35
2023-04-17T12:59:16.219Z,20.44
2023-04-17T13:01:43.663Z,20.73
2023-04-17T13:04:11.800Z,20.77
2023-04-17T13:06:39.573Z,21.29
2023-04-17T13:09:07.176Z,21.17
2023-04-17T13:11:34.776Z,20.95
2023-04-17T13:14:02.145Z,20.73
2023-04-17T13:16:29.491Z,20.57
2023-04-17T13:18:57.138Z,20.85
2023-04-17T13:21:24.742Z,20.91
2023-04-17T13:23:52.166Z,20.95
2023-04-17T13:26:20.580Z,20.95
2023-04-17T13:28:47.966Z,20.89
2023-04-17T13:31:15.647Z,20.49
2023-04-17T13:33:44.667Z,20.23
2023-04-17T13:36:12.208Z,20.47
2023-04-17T13:38:39.672Z,20.30
2023-04-17T13:41:07.270Z,20.56
2023-04-17T13:43:34.715Z,20.11
2023-04-17T13:46:02.163Z,20.69
2023-04-17T13:48:29.919Z,20.62
2023-04-17T13:50:57.274Z,20.72
2023-04-17T13:53:24.725Z,20.34
2023-04-17T13:55:52.461Z,19.86
2023-04-17T13:58:20.034Z,19.36
2023-04-17T14:00:47.427Z,19.08
2023-04-17T14:03:15.163Z,19.18
2023-04-17T14:05:42.689Z,18.39
2023-04-17T14:08:10.163Z,18.19
2023-04-17T14:10:37.956Z,17.51
2023-04-17T14:13:05.356Z,17.45
2023-04-17T14:15:32.858Z,17.64
2023-04-17T14:18:00.707Z,17.48
2023-04-17T14:20:28.384Z,17.89
2023-04-17T14:22:55.848Z,17.67
2023-04-17T14:25:23.555Z,17.49
2023-04-17T14:27:52.497Z,17.47
2023-04-17T14:30:20.099Z,17.65
2023-04-17T14:32:48.349Z,17.86
2023-04-17T14:35:15.909Z,18.21
2023-04-17T14:37:43.322Z,18.29
2023-04-17T14:40:11.429Z,18.60
2023-04-17T14:42:51.177Z,18.78
2023-04-17T14:45:21.661Z,18.58
2023-04-17T14:47:49.098Z,18.82
2023-04-17T14:50:16.529Z,18.85
2023-04-17T14:52:44.881Z,19.02
2023-04-17T14:55:12.528Z,19.30
2023-04-17T14:57:39.960Z,19.11
2023-04-17T15:00:08.386Z,19.12
2023-04-17T15:02:38.845Z,19.49
2023-04-17T15:05:07.649Z,19.28
2023-04-17T15:07:35.739Z,19.22
2023-04-17T15:10:05.005Z,18.91
2023-04-17T15:12:32.362Z,19.07
2023-04-17T15:15:00.197Z,19.06
2023-04-17T15:17:27.601Z,19.05
2023-04-17T15:19:57.376Z,19.04
2023-04-17T15:22:25.568Z,18.87
2023-04-17T15:24:53.167Z,19.13
2023-04-17T15:27:20.546Z,18.88
2023-04-17T15:29:48.245Z,18.80
2023-04-17T15:32:15.853Z,18.78
2023-04-17T15:34:43.281Z,19.09
2023-04-17T15:37:11.781Z,18.84
2023-04-17T15:39:39.408Z,18.64
2023-04-17T15:42:11.124Z,18.14
2023-04-17T15:44:38.779Z,18.33
2023-04-17T15:47:06.653Z,18.29
2023-04-17T15:49:34.304Z,18.65
2023-04-17T15:52:01.979Z,18.59
2023-04-17T15:54:29.335Z,18.10
2023-04-17T15:56:56.969Z,18.34
2023-04-17T15:59:24.718Z,18.26
2023-04-17T16:01:53.238Z,18.14
2023-04-17T16:04:21.155Z,18.21
2023-04-17T16:06:50.862Z,17.78
2023-04-17T16:09:20.085Z,18.20
2023-04-17T16:11:48.565Z,18.08
2023-04-17T16:14:16.307Z,17.79
2023-04-17T16:16:43.772Z,18.13
2023-04-17T16:19:11.682Z,18.30
2023-04-17T16:21:39.234Z,17.78
2023-04-17T16:24:06.642Z,17.89
2023-04-17T16:26:34.289Z,17.56
2023-04-17T16:29:01.653Z,17.25
2023-04-17T16:31:29.083Z,17.42
2023-04-17T16:33:56.773Z,17.59
2023-04-17T16:36:27.320Z,17.64
2023-04-17T16:38:54.692Z,17.23
2023-04-17T16:41:22.354Z,17.37
2023-04-17T16:43:49.737Z,17.33
2023-04-17T16:46:23.988Z,17.50
2023-04-17T16:48:59.445Z,17.43
2023-04-17T16:51:27.014Z,17.61
2023-04-17T16:53:54.425Z,17.63
2023-04-17T16:56:22.022Z,17.56
2023-04-17T16:58:49.364Z,17.66
2023-04-17T17:01:16.965Z,17.54
2023-04-17T17:03:45.176Z,17.71
2023-04-17T17:06:13.020Z,17.74
2023-04-17T17:08:43.266Z,17.82
2023-04-17T17:11:10.961Z,17.90
2023-04-17T17:13:38.329Z,17.89
2023-04-17T17:16:05.815Z,18.03
2023-04-17T17:18:33.452Z,17.82
2023-04-17T17:21:01.942Z,18.01
2023-04-17T17:23:29.403Z,17.94
2023-04-17T17:25:58.187Z,18.01
2023-04-17T17:28:27.069Z,18.07
2023-04-17T17:31:06.192Z,18.01
2023-04-17T17:33:34.609Z,17.91
2023-04-17T17:36:03.333Z,17.74
2023-04-17T17:38:32.583Z,17.78
2023-04-17T17:41:00.620Z,17.88
2023-04-17T17:43:30.040Z,17.82
2023-04-17T17:45:57.601Z,17.58
2023-04-17T17:48:25.923Z,17.55
2023-04-17T17:50:56.404Z,17.54
2023-04-17T17:53:31.486Z,17.32
2023-04-17T17:55:59.710Z,17.35
2023-04-17T17:58:27.685Z,17.36
2023-04-17T18:00:55.215Z,17.11
2023-04-17T18:03:24.088Z,17.01
2023-04-17T18:05:53.246Z,17.00
2023-04-17T18:08:21.188Z,17.04
2023-04-17T18:10:48.821Z,16.98
2023-04-17T18:13:16.680Z,17.14
2023-04-17T18:15:45.712Z,17.10
2023-04-17T18:18:16.796Z,16.94
2023-04-17T18:20:44.612Z,16.82
2023-04-17T18:23:12.365Z,16.60
2023-04-17T18:25:40.952Z,16.61
2023-04-17T18:28:10.621Z,16.66
2023-04-17T18:30:40.788Z,16.79
2023-04-17T18:33:08.920Z,16.90
2023-04-17T18:35:38.143Z,16.83
2023-04-17T18:38:06.406Z,16.47
2023-04-17T18:40:39.116Z,16.28
2023-04-17T18:43:07.145Z,16.36
2023-04-17T18:45:37.469Z,16.29
2023-04-17T18:48:06.061Z,16.34
2023-04-17T18:50:34.478Z,16.40
2023-04-17T18:53:03.560Z,16.64
2023-04-17T18:55:32.880Z,16.63
2023-04-17T18:58:04.622Z,16.43
2023-04-17T19:00:33.396Z,16.19
2023-04-17T19:03:01.342Z,16.13
2023-04-17T19:05:30.236Z,16.20
2023-04-17T19:07:58.652Z,16.36
2023-04-17T19:10:27.660Z,16.44
2023-04-17T19:12:57.516Z,15.88
2023-04-17T19:15:25.750Z,16.24
2023-04-17T19:17:53.821Z,16.21
2023-04-17T19:20:23.703Z,16.13
2023-04-17T19:22:51.727Z,16.41
2023-04-17T19:25:20.894Z,16.29
2023-04-17T19:27:49.888Z,16.12
2023-04-17T19:30:18.326Z,16.05
2023-04-17T19:32:48.980Z,16.13
2023-04-17T19:35:17.193Z,15.94
2023-04-17T19:37:46.348Z,16.10
2023-04-17T19:40:24.465Z,16.08
2023-04-17T19:42:56.537Z,16.32
2023-04-17T19:45:28.624Z,16.22
2023-04-17T19:50:39.058Z,16.54
2023-04-17T19:53:07.371Z,16.19
2023-04-17T19:55:36.775Z,16.45
2023-04-17T19:58:04.467Z,16.40
2023-04-17T20:00:32.380Z,16.23
2023-04-17T20:03:01.509Z,16.11
2023-04-17T20:05:31.018Z,16.20
2023-04-17T20:08:02.992Z,16.32
2023-04-17T20:10:30.763Z,16.36
2023-04-17T20:12:58.976Z,16.03
2023-04-17T20:15:27.396Z,15.98
2023-04-17T20:17:55.789Z,16.18
2023-04-17T20:20:23.542Z,16.18
2023-04-17T20:22:51.537Z,16.03
2023-04-17T20:25:19.852Z,16.08
2023-04-17T20:27:47.584Z,16.26
2023-04-17T20:30:15.457Z,15.97
2023-04-17T20:32:43.334Z,15.95
2023-04-17T20:35:11.191Z,16.21
2023-04-17T20:37:41.030Z,16.32
2023-04-17T20:40:11.858Z,16.24
2023-04-17T20:42:41.220Z,16.13
2023-04-17T20:45:09.889Z,15.91
2023-04-17T20:47:46.128Z,15.81
2023-04-17T20:50:22.997Z,15.92
2023-04-17T20:52:50.615Z,16.05
2023-04-17T20:55:19.917Z,16.14
2023-04-17T20:57:48.010Z,16.22
2023-04-17T21:00:16.172Z,16.26
2023-04-17T21:02:43.926Z,16.30
2023-04-17T21:05:11.649Z,16.04
2023-04-17T21:07:39.016Z,16.32
2023-04-17T21:10:06.767Z,16.26
2023-04-17T21:12:35.352Z,16.25
2023-04-17T21:15:02.787Z,16.36
2023-04-17T21:17:31.344Z,16.19
2023-04-17T21:19:59.052Z,16.16
2023-04-17T21:22:26.414Z,15.92
2023-04-17T21:24:53.776Z,15.99
2023-04-17T21:27:22.073Z,16.21
2023-04-17T21:29:49.490Z,16.24
2023-04-17T21:32:16.878Z,15.86
2023-04-17T21:34:44.547Z,16.09
2023-04-17T21:37:11.918Z,16.18
2023-04-17T21:39:39.599Z,15.98
2023-04-17T21:42:07.247Z,15.80
2023-04-17T21:44:34.594Z,15.92
2023-04-17T21:47:03.032Z,15.77
2023-04-17T21:49:30.674Z,15.93
2023-04-17T21:51:58.562Z,15.84
2023-04-17T21:54:27.504Z,15.73
2023-04-17T21:56:55.693Z,15.75
2023-04-17T21:59:24.340Z,15.89
2023-04-17T22:01:51.818Z,15.57
2023-04-17T22:04:19.544Z,15.72
2023-04-17T22:06:46.947Z,15.89
2023-04-17T22:09:14.853Z,15.81
2023-04-17T22:11:42.504Z,15.91
2023-04-17T22:14:09.872Z,15.82
2023-04-17T22:16:37.334Z,15.71
2023-04-17T22:19:05.286Z,15.73
2023-04-17T22:21:32.774Z,15.67
2023-04-17T22:24:00.112Z,15.84
2023-04-17T22:26:27.902Z,15.76
2023-04-17T22:28:55.259Z,15.74
2023-04-17T22:31:22.702Z,15.88
2023-04-17T22:33:50.316Z,15.72
2023-04-17T22:36:17.683Z,15.88
2023-04-17T22:38:45.043Z,15.88
2023-04-17T22:41:12.663Z,15.63
2023-04-17T22:43:39.971Z,15.41
2023-04-17T22:46:07.367Z,15.60
2023-04-17T22:48:35.033Z,15.63
2023-04-17T22:51:02.563Z,15.61
2023-04-17T22:53:29.991Z,15.66
2023-04-17T22:56:01.550Z,15.75
2023-04-17T22:58:31.078Z,15.74
2023-04-17T23:00:59.048Z,15.55
2023-04-17T23:03:26.746Z,15.62
2023-04-17T23:05:54.544Z,15.60
2023-04-17T23:08:23.212Z,15.46
2023-04-17T23:11:00.653Z,15.73
2023-04-17T23:13:28.347Z,15.52
2023-04-17T23:15:55.739Z,15.44
2023-04-17T23:18:23.543Z,15.58
2023-04-17T23:20:51.181Z,15.52
2023-04-17T23:23:18.639Z,15.61
2023-04-17T23:25:46.117Z,15.53
2023-04-17T23:28:15.137Z,14.94
2023-04-17T23:30:42.513Z,15.08
2023-04-17T23:33:09.936Z,15.41
2023-04-17T23:35:37.834Z,15.44
2023-04-17T23:38:05.268Z,15.46
2023-04-17T23:40:34.724Z,15.23
2023-04-17T23:43:02.425Z,15.52
2023-04-17T23:45:29.881Z,14.98
2023-04-17T23:47:58.578Z,15.11
2023-04-17T23:50:26.292Z,15.34
2023-04-17T23:52:54.905Z,15.16
2023-04-17T23:55:22.758Z,15.10
2023-04-17T23:57:50.656Z,15.17
